Time;durP1;ratioP1;P1;durP2;ratioP2;P2;SDS_P1;SDS_P2;PMS_P1;PMS_P2;Temp;Humidity;BMP_temperature;BMP_pressure;BME280_temperature;BME280_humidity;BME280_pressure;Samples;Min_cycle;Max_cycle;Signal;HPM_P1;HPM_P2
2024/04/06 00:01:01;;;;;;;4.97;1.53;;;12.40;99.90;;;;;;5085430;28;20198;-55
2024/04/06 00:03:27;;;;;;;6.83;1.60;;;12.40;99.90;;;;;;5047456;28;20212;-53
2024/04/06 00:05:55;;;;;;;9.83;1.90;;;12.40;99.90;;;;;;5076200;28;21363;-53
2024/04/06 00:08:21;;;;;;;7.90;1.90;;;12.40;99.90;;;;;;5070781;28;20214;-53
2024/04/06 00:10:48;;;;;;;3.10;1.60;;;12.40;99.90;;;;;;5064705;28;20700;-56
2024/04/06 00:13:14;;;;;;;7.50;2.20;;;12.40;99.90;;;;;;5078578;28;20241;-52
2024/04/06 00:15:41;;;;;;;10.50;2.10;;;12.30;99.90;;;;;;5055140;28;21960;-53
2024/04/06 00:18:07;;;;;;;5.10;1.70;;;12.30;99.90;;;;;;5076434;28;20221;-52
2024/04/06 00:20:36;;;;;;;6.13;1.63;;;12.30;99.90;;;;;;5052195;28;20189;-53
2024/04/06 00:23:03;;;;;;;8.47;1.90;;;12.30;99.90;;;;;;5056463;28;20193;-57
2024/04/06 00:25:30;;;;;;;6.93;1.80;;;12.30;99.90;;;;;;5072874;28;20206;-56
2024/04/06 00:27:56;;;;;;;7.17;1.67;;;12.20;99.90;;;;;;5077321;28;20226;-56
2024/04/06 00:30:22;;;;;;;3.87;1.60;;;12.20;99.90;;;;;;5066745;28;20303;-54
2024/04/06 00:32:48;;;;;;;7.27;2.03;;;12.10;99.90;;;;;;5081126;28;20225;-50
2024/04/06 00:35:16;;;;;;;7.50;2.67;;;12.20;99.90;;;;;;5046314;28;20210;-52
2024/04/06 00:37:42;;;;;;;7.43;1.80;;;12.10;99.90;;;;;;5087026;28;20292;-57
2024/04/06 00:40:11;;;;;;;6.87;2.00;;;12.10;99.90;;;;;;5084195;28;20198;-51
2024/04/06 00:42:36;;;;;;;4.03;1.70;;;12.10;99.90;;;;;;5069562;28;20259;-55
2024/04/06 00:45:04;;;;;;;6.43;2.17;;;12.10;99.90;;;;;;5092781;28;20201;-56
2024/04/06 00:47:30;;;;;;;11.43;2.30;;;12.00;99.90;;;;;;5074174;28;20220;-54
2024/04/06 00:49:57;;;;;;;8.20;2.57;;;12.00;99.90;;;;;;5047597;28;20911;-57
2024/04/06 00:52:23;;;;;;;7.27;1.93;;;12.00;99.90;;;;;;5079420;28;20781;-52
2024/04/06 00:54:50;;;;;;;8.07;1.87;;;11.90;99.90;;;;;;5085015;28;20259;-54
2024/04/06 00:57:17;;;;;;;11.23;1.70;;;11.90;99.90;;;;;;5079163;28;20267;-51
2024/04/06 00:59:44;;;;;;;9.40;2.30;;;11.90;99.90;;;;;;5066327;28;20198;-54
2024/04/06 01:02:10;;;;;;;6.50;1.73;;;11.80;99.90;;;;;;5051397;28;20255;-52
2024/04/06 01:04:37;;;;;;;6.30;1.93;;;11.80;99.90;;;;;;5045062;28;20869;-56
2024/04/06 01:07:03;;;;;;;6.37;2.00;;;11.80;99.90;;;;;;5082289;28;20198;-55
2024/04/06 01:09:30;;;;;;;6.10;1.80;;;11.70;99.90;;;;;;5082755;28;20251;-54
2024/04/06 01:11:55;;;;;;;8.07;2.30;;;11.70;99.90;;;;;;5076471;28;20216;-53
2024/04/06 01:14:24;;;;;;;10.10;2.13;;;11.70;99.90;;;;;;5078280;28;20190;-54
2024/04/06 01:16:49;;;;;;;7.43;1.97;;;11.70;99.90;;;;;;5078526;28;20208;-55
2024/04/06 01:19:16;;;;;;;7.53;1.93;;;11.60;99.90;;;;;;5084092;28;20205;-50
2024/04/06 01:21:42;;;;;;;10.20;2.87;;;11.50;99.90;;;;;;5058381;28;20233;-56
2024/04/06 01:24:25;;;;;;;7.73;1.90;;;11.50;99.90;;;;;;5085644;28;20339;-53
2024/04/06 01:26:51;;;;;;;8.77;2.27;;;11.50;99.90;;;;;;5088907;28;20206;-57
2024/04/06 01:29:18;;;;;;;6.60;1.83;;;11.50;99.90;;;;;;5066995;28;20652;-51
2024/04/06 01:31:44;;;;;;;6.53;2.07;;;11.40;99.90;;;;;;5073668;28;20280;-53
2024/04/06 01:34:11;;;;;;;7.17;1.57;;;11.40;99.90;;;;;;5085756;28;20193;-52
2024/04/06 01:36:38;;;;;;;5.13;1.60;;;11.40;99.90;;;;;;5058456;28;21684;-55
2024/04/06 01:39:05;;;;;;;5.40;2.00;;;11.40;99.90;;;;;;5084919;28;20578;-53
2024/04/06 01:41:32;;;;;;;8.80;1.93;;;11.30;99.90;;;;;;5087672;28;20192;-56
2024/04/06 01:43:59;;;;;;;8.97;2.10;;;11.30;99.90;;;;;;5078605;28;20194;-52
2024/04/06 01:46:25;;;;;;;7.10;1.73;;;11.30;99.90;;;;;;5071613;28;20190;-55
2024/04/06 01:48:52;;;;;;;5.57;1.70;;;11.30;99.90;;;;;;5077636;28;20274;-52
2024/04/06 01:51:18;;;;;;;8.10;2.10;;;11.30;99.90;;;;;;5087541;28;20597;-52
2024/04/06 01:53:45;;;;;;;9.27;2.30;;;11.30;99.90;;;;;;5054491;28;20305;-55
2024/04/06 01:56:11;;;;;;;4.97;2.20;;;11.30;99.90;;;;;;5085357;28;20585;-54
2024/04/06 01:58:39;;;;;;;5.60;1.67;;;11.30;99.90;;;;;;5077976;28;20201;-54
2024/04/06 02:01:05;;;;;;;2.97;1.73;;;11.30;99.90;;;;;;5078732;28;20202;-51
2024/04/06 02:03:32;;;;;;;10.67;2.13;;;11.30;99.90;;;;;;5074002;28;20205;-54
2024/04/06 02:05:58;;;;;;;7.70;2.00;;;11.30;99.90;;;;;;5086930;28;20287;-55
2024/04/06 02:08:25;;;;;;;8.40;2.10;;;11.30;99.90;;;;;;5052973;28;20210;-55
2024/04/06 02:10:51;;;;;;;4.80;2.03;;;11.30;99.90;;;;;;5086560;28;20194;-54
2024/04/06 02:13:18;;;;;;;8.57;2.23;;;11.30;99.90;;;;;;5077383;28;20214;-51
2024/04/06 02:15:45;;;;;;;12.27;2.17;;;11.30;99.90;;;;;;5078161;28;20193;-56
2024/04/06 02:18:12;;;;;;;7.33;2.37;;;11.30;99.90;;;;;;5082699;28;20213;-53
2024/04/06 02:20:39;;;;;;;6.83;2.00;;;11.30;99.90;;;;;;5077123;28;20182;-56
2024/04/06 02:23:06;;;;;;;8.23;1.90;;;11.40;99.90;;;;;;5057336;28;20209;-55
2024/04/06 02:25:32;;;;;;;8.83;2.30;;;11.30;99.90;;;;;;5079860;28;20237;-56
2024/04/06 02:28:00;;;;;;;6.80;2.30;;;11.30;99.90;;;;;;5079780;28;20716;-57
2024/04/06 02:30:27;;;;;;;7.70;2.13;;;11.30;99.90;;;;;;5078687;28;20264;-55
2024/04/06 02:32:54;;;;;;;6.57;2.20;;;11.30;99.90;;;;;;5085606;28;20570;-57
2024/04/06 02:35:21;;;;;;;6.53;2.17;;;11.20;99.90;;;;;;5074833;28;20598;-50
2024/04/06 02:37:47;;;;;;;4.73;1.90;;;11.10;99.90;;;;;;5047735;28;20230;-53
2024/04/06 02:40:14;;;;;;;7.17;2.40;;;11.10;99.90;;;;;;5075407;28;20197;-51
2024/04/06 02:42:40;;;;;;;5.90;1.67;;;11.10;99.90;;;;;;5080087;28;20181;-56
2024/04/06 02:45:07;;;;;;;8.57;2.13;;;11.10;99.90;;;;;;5085600;28;20191;-52
2024/04/06 02:47:33;;;;;;;8.50;2.43;;;11.10;99.90;;;;;;5073932;28;20238;-56
2024/04/06 02:50:02;;;;;;;6.93;2.17;;;11.10;99.90;;;;;;5078238;28;20208;-57
2024/04/06 02:52:27;;;;;;;6.73;2.07;;;11.10;99.90;;;;;;5080900;28;20209;-56
2024/04/06 02:54:54;;;;;;;9.13;3.10;;;11.10;99.90;;;;;;5046930;28;20213;-56
2024/04/06 02:57:20;;;;;;;9.23;2.40;;;11.10;99.90;;;;;;5084844;28;20214;-53
2024/04/06 02:59:46;;;;;;;6.77;1.93;;;11.00;99.90;;;;;;5083728;28;20334;-55
2024/04/06 03:02:13;;;;;;;6.53;2.50;;;11.00;99.90;;;;;;5083787;28;20177;-53
2024/04/06 03:04:40;;;;;;;5.37;1.87;;;10.90;99.90;;;;;;5069585;28;20202;-57
2024/04/06 03:07:09;;;;;;;9.63;2.10;;;10.90;99.90;;;;;;5077363;28;20258;-53
2024/04/06 03:09:35;;;;;;;7.93;1.83;;;10.90;99.90;;;;;;5048732;28;21210;-55
2024/04/06 03:12:02;;;;;;;8.20;1.80;;;10.80;99.90;;;;;;5088214;28;20760;-56
2024/04/06 03:14:28;;;;;;;8.03;2.57;;;10.80;99.90;;;;;;5071699;28;20691;-57
2024/04/06 03:16:55;;;;;;;4.13;2.17;;;10.80;99.90;;;;;;5081566;28;20194;-53
2024/04/06 03:19:21;;;;;;;7.93;2.27;;;10.80;99.90;;;;;;5067699;28;20213;-52
2024/04/06 03:21:49;;;;;;;7.73;2.10;;;10.70;99.90;;;;;;5069617;28;20932;-52
2024/04/06 03:24:16;;;;;;;9.47;2.27;;;10.70;99.90;;;;;;5081876;28;21799;-51
2024/04/06 03:26:44;;;;;;;8.63;2.20;;;10.70;99.90;;;;;;5059967;28;20197;-53
2024/04/06 03:29:10;;;;;;;6.87;2.20;;;10.70;99.90;;;;;;5090228;28;20289;-56
2024/04/06 03:31:37;;;;;;;8.80;2.47;;;10.70;99.90;;;;;;5080267;28;20251;-54
2024/04/06 03:34:03;;;;;;;6.43;2.10;;;10.60;99.90;;;;;;5075943;28;20230;-55
2024/04/06 03:36:30;;;;;;;6.43;2.00;;;10.60;99.90;;;;;;5068387;28;20197;-52
2024/04/06 03:38:58;;;;;;;9.30;1.93;;;10.50;99.90;;;;;;5084487;28;20236;-55
2024/04/06 03:41:26;;;;;;;5.83;1.70;;;10.50;99.90;;;;;;5050672;28;20230;-52
2024/04/06 03:43:53;;;;;;;7.27;2.43;;;10.50;99.90;;;;;;5080766;28;20186;-56
2024/04/06 03:46:20;;;;;;;9.23;1.67;;;10.40;99.90;;;;;;5077479;28;20273;-50
2024/04/06 03:48:46;;;;;;;4.43;1.87;;;10.40;99.90;;;;;;5067191;28;20294;-54
2024/04/06 03:51:12;;;;;;;5.40;2.33;;;10.50;99.90;;;;;;5068936;28;20198;-54
2024/04/06 03:53:41;;;;;;;8.77;2.67;;;10.40;99.90;;;;;;5082164;28;20213;-55
2024/04/06 03:56:07;;;;;;;4.67;1.80;;;10.40;99.90;;;;;;5057063;28;20194;-57
2024/04/06 03:58:35;;;;;;;7.53;2.13;;;10.40;99.90;;;;;;5085791;28;20216;-54
2024/04/06 04:01:01;;;;;;;5.47;2.17;;;10.40;99.90;;;;;;5071739;28;20598;-58
2024/04/06 04:03:27;;;;;;;4.50;2.60;;;10.40;99.90;;;;;;5065833;28;20251;-52
2024/04/06 04:05:53;;;;;;;9.03;2.77;;;10.40;99.90;;;;;;5083021;28;20225;-56
2024/04/06 04:08:20;;;;;;;5.20;2.17;;;10.40;99.90;;;;;;5073323;28;20278;-55
2024/04/06 04:10:46;;;;;;;5.40;2.27;;;10.40;99.90;;;;;;5052132;28;20269;-54
2024/04/06 04:13:13;;;;;;;10.73;2.63;;;10.40;99.90;;;;;;5086088;28;20215;-56
2024/04/06 04:15:41;;;;;;;7.87;2.57;;;10.40;99.90;;;;;;5083019;28;20833;-54
2024/04/06 04:18:09;;;;;;;8.33;2.67;;;10.40;99.90;;;;;;5071488;28;20218;-54
2024/04/06 04:20:35;;;;;;;11.53;2.70;;;10.40;99.90;;;;;;5081374;28;20967;-55
2024/04/06 04:23:03;;;;;;;7.47;3.07;;;10.40;99.90;;;;;;5077749;28;20554;-51
2024/04/06 04:25:29;;;;;;;9.40;2.23;;;10.40;99.90;;;;;;5089896;28;20262;-53
2024/04/06 04:27:56;;;;;;;5.77;2.40;;;10.40;99.90;;;;;;5058532;28;20226;-53
2024/04/06 04:30:22;;;;;;;6.37;2.43;;;10.40;99.90;;;;;;5084769;28;20602;-52
2024/04/06 04:32:51;;;;;;;13.67;2.70;;;10.40;99.90;;;;;;5081116;28;20214;-57
2024/04/06 04:35:17;;;;;;;7.93;2.70;;;10.40;99.90;;;;;;5077880;28;20602;-51
2024/04/06 04:37:44;;;;;;;10.03;3.20;;;10.40;99.90;;;;;;5084499;28;20214;-54
2024/04/06 04:40:10;;;;;;;7.40;2.73;;;10.40;99.90;;;;;;5058719;28;20226;-57
2024/04/06 04:42:37;;;;;;;6.27;2.40;;;10.50;99.90;;;;;;5048908;28;20205;-53
2024/04/06 04:45:07;;;;;;;7.00;3.17;;;10.50;99.90;;;;;;5081667;28;20194;-53
2024/04/06 04:47:34;;;;;;;10.57;2.73;;;10.50;99.90;;;;;;5080788;28;20194;-54
2024/04/06 04:50:03;;;;;;;9.10;2.50;;;10.50;99.90;;;;;;5080470;28;20290;-56
2024/04/06 04:52:30;;;;;;;6.00;2.57;;;10.60;99.90;;;;;;5086874;28;20225;-52
2024/04/06 04:54:55;;;;;;;10.57;2.57;;;10.50;99.90;;;;;;5076510;28;20202;-55
2024/04/06 04:57:22;;;;;;;7.70;3.33;;;10.50;99.90;;;;;;5071732;28;20255;-50
2024/04/06 04:59:48;;;;;;;6.50;2.70;;;10.50;99.90;;;;;;5061389;28;20182;-55
2024/04/06 05:02:15;;;;;;;3.77;2.80;;;10.60;99.90;;;;;;5083371;28;20204;-54
2024/04/06 05:04:41;;;;;;;5.27;3.40;;;10.60;99.90;;;;;;5072508;28;20205;-56
2024/04/06 05:07:10;;;;;;;9.57;2.97;;;10.60;99.90;;;;;;5090849;28;20201;-56
2024/04/06 05:09:36;;;;;;;5.23;2.43;;;10.60;99.90;;;;;;5070209;28;21305;-51
2024/04/06 05:12:03;;;;;;;6.17;2.77;;;10.70;99.90;;;;;;5075362;28;20677;-51
2024/04/06 05:14:29;;;;;;;9.50;3.10;;;10.70;99.90;;;;;;5043092;28;21395;-56
2024/04/06 05:16:56;;;;;;;9.57;3.33;;;10.70;99.90;;;;;;5086714;28;20221;-58
2024/04/06 05:19:22;;;;;;;8.40;3.00;;;10.70;99.90;;;;;;5075147;28;20303;-55
2024/04/06 05:21:49;;;;;;;8.23;3.13;;;10.70;99.90;;;;;;5085523;28;20197;-58
2024/04/06 05:24:16;;;;;;;10.67;3.07;;;10.70;99.90;;;;;;5072643;28;20645;-52
2024/04/06 05:26:44;;;;;;;5.83;3.00;;;10.80;99.90;;;;;;5075464;28;20984;-58
2024/04/06 05:29:10;;;;;;;8.47;2.67;;;10.80;99.90;;;;;;5061048;28;20233;-57
2024/04/06 05:31:37;;;;;;;9.83;2.97;;;10.80;99.90;;;;;;5081771;28;20218;-59
2024/04/06 05:34:04;;;;;;;6.67;2.73;;;10.90;99.90;;;;;;5086895;28;20214;-57
2024/04/06 05:36:31;;;;;;;10.83;3.13;;;10.90;99.90;;;;;;5077940;28;20894;-60
2024/04/06 05:38:57;;;;;;;8.70;3.37;;;10.90;99.90;;;;;;5081455;28;20628;-57
2024/04/06 05:41:25;;;;;;;5.17;2.50;;;11.00;99.90;;;;;;5061293;28;20194;-58
2024/04/06 05:43:52;;;;;;;9.23;3.30;;;11.10;99.90;;;;;;5087305;28;20704;-59
2024/04/06 05:46:19;;;;;;;6.47;3.10;;;11.10;99.90;;;;;;5055276;28;20284;-59
2024/04/06 05:48:46;;;;;;;7.13;2.60;;;11.20;99.90;;;;;;5087872;28;20226;-60
2024/04/06 05:51:13;;;;;;;7.90;2.80;;;11.20;99.90;;;;;;5075634;28;20250;-57
2024/04/06 05:53:40;;;;;;;4.53;2.40;;;11.20;99.90;;;;;;5080439;28;20218;-59
2024/04/06 05:56:09;;;;;;;4.90;3.00;;;11.30;99.90;;;;;;5071187;28;20212;-57
2024/04/06 05:58:37;;;;;;;6.83;2.73;;;11.30;99.90;;;;;;5084429;28;20206;-60
2024/04/06 06:01:04;;;;;;;4.77;2.93;;;11.30;99.90;;;;;;5052651;28;20216;-57
2024/04/06 06:03:30;;;;;;;8.63;3.07;;;11.40;99.90;;;;;;5089548;28;20190;-58
2024/04/06 06:05:57;;;;;;;8.93;3.47;;;11.50;99.90;;;;;;5059358;28;20194;-58
2024/04/06 06:08:23;;;;;;;6.63;3.00;;;11.50;99.90;;;;;;5074622;28;20211;-59
2024/04/06 06:10:50;;;;;;;5.00;2.60;;;11.50;99.90;;;;;;5083204;28;20190;-60
2024/04/06 06:13:17;;;;;;;11.47;2.90;;;11.60;99.90;;;;;;5072807;28;20229;-60
2024/04/06 06:15:45;;;;;;;6.17;3.00;;;11.60;99.90;;;;;;5050811;28;24210;-59
2024/04/06 06:18:11;;;;;;;7.13;3.17;;;11.70;99.90;;;;;;5087599;28;20260;-59
2024/04/06 06:20:38;;;;;;;7.97;3.23;;;11.70;99.90;;;;;;5063870;28;20198;-57
2024/04/06 06:23:05;;;;;;;11.33;3.23;;;11.80;99.90;;;;;;5075009;28;20274;-58
2024/04/06 06:25:32;;;;;;;5.80;3.63;;;11.90;99.90;;;;;;5083588;28;20193;-57
2024/04/06 06:27:58;;;;;;;9.70;3.27;;;11.90;99.90;;;;;;5071058;28;20301;-59
2024/04/06 06:30:26;;;;;;;7.60;3.33;;;12.00;99.90;;;;;;5079313;28;20277;-57
2024/04/06 06:32:53;;;;;;;7.07;3.00;;;12.10;99.90;;;;;;5052418;28;20242;-53
2024/04/06 06:35:20;;;;;;;8.23;2.57;;;12.20;99.90;;;;;;5077488;28;20194;-50
2024/04/06 06:37:46;;;;;;;10.53;3.07;;;12.30;99.90;;;;;;5064494;28;20213;-57
2024/04/06 06:40:13;;;;;;;5.77;2.90;;;12.40;99.90;;;;;;5083642;28;20189;-57
2024/04/06 06:42:39;;;;;;;9.67;2.90;;;12.40;99.90;;;;;;5071336;28;20277;-56
2024/04/06 06:45:06;;;;;;;8.73;3.13;;;12.40;99.90;;;;;;5082492;28;20309;-58
2024/04/06 06:47:32;;;;;;;8.13;2.40;;;12.40;99.90;;;;;;5049068;28;20306;-51
2024/04/06 06:50:01;;;;;;;5.57;2.63;;;12.50;99.90;;;;;;5077742;28;20185;-52
2024/04/06 06:52:27;;;;;;;7.17;2.30;;;12.60;99.90;;;;;;5067686;28;20202;-49
2024/04/06 06:54:54;;;;;;;4.27;2.20;;;12.70;99.90;;;;;;5080086;28;20305;-54
2024/04/06 06:57:19;;;;;;;8.50;2.43;;;12.80;99.90;;;;;;5083350;28;20198;-52
2024/04/06 06:59:46;;;;;;;8.70;1.97;;;12.90;99.90;;;;;;5071370;28;20247;-56
2024/04/06 07:02:13;;;;;;;6.07;1.83;;;13.00;99.90;;;;;;5078564;28;20225;-53
2024/04/06 07:04:39;;;;;;;2.27;2.07;;;13.20;99.90;;;;;;5042707;28;20209;-55
2024/04/06 07:07:08;;;;;;;6.97;2.40;;;13.30;99.90;;;;;;5083497;28;20182;-57
2024/04/06 07:09:34;;;;;;;4.00;2.00;;;13.30;99.90;;;;;;5069319;28;20233;-50
2024/04/06 07:12:00;;;;;;;6.23;2.07;;;13.50;99.90;;;;;;5080621;28;20190;-57
2024/04/06 07:14:26;;;;;;;6.80;2.07;;;13.60;99.90;;;;;;5070838;28;20292;-53
2024/04/06 07:16:53;;;;;;;4.23;2.30;;;13.70;99.90;;;;;;5068687;28;20257;-52
2024/04/06 07:19:19;;;;;;;3.97;2.00;;;13.80;99.90;;;;;;5046650;28;20275;-54
2024/04/06 07:21:46;;;;;;;6.60;2.50;;;13.90;99.90;;;;;;5073329;28;20202;-52
2024/04/06 07:24:13;;;;;;;10.27;2.40;;;14.00;99.90;;;;;;5065552;28;20202;-56
2024/04/06 07:26:40;;;;;;;3.70;2.37;;;14.10;99.90;;;;;;5077287;28;20669;-61
2024/04/06 07:29:05;;;;;;;3.10;2.13;;;14.20;99.90;;;;;;5055963;28;20224;-59
2024/04/06 07:31:32;;;;;;;5.70;2.17;;;14.40;99.90;;;;;;5074564;28;20197;-59
2024/04/06 07:33:58;;;;;;;8.63;2.33;;;14.40;99.90;;;;;;5045347;28;20278;-58
2024/04/06 07:36:25;;;;;;;4.40;2.27;;;14.50;99.90;;;;;;5081790;28;20198;-60
2024/04/06 07:38:51;;;;;;;5.53;2.60;;;14.70;99.90;;;;;;5076009;28;20924;-56
2024/04/06 07:41:19;;;;;;;6.93;3.17;;;14.80;99.90;;;;;;5077599;28;20186;-63
2024/04/06 07:43:45;;;;;;;4.80;2.30;;;14.90;99.90;;;;;;5075962;28;20194;-49
2024/04/06 07:46:12;;;;;;;4.30;2.53;;;15.00;99.90;;;;;;5065069;28;20473;-57
2024/04/06 07:48:38;;;;;;;5.70;2.77;;;15.10;99.90;;;;;;5050237;28;20279;-54
2024/04/06 07:51:05;;;;;;;6.60;2.80;;;15.30;99.90;;;;;;5079221;28;20201;-58
2024/04/06 07:53:31;;;;;;;3.80;2.77;;;15.40;99.90;;;;;;5084419;28;20699;-54
2024/04/06 07:55:58;;;;;;;5.37;3.00;;;15.50;99.90;;;;;;5071328;28;20209;-53
2024/04/06 07:58:26;;;;;;;5.60;3.27;;;15.50;99.90;;;;;;5076105;28;20888;-51
2024/04/06 08:00:53;;;;;;;7.17;3.10;;;15.60;99.90;;;;;;5066592;28;20702;-53
2024/04/06 08:03:19;;;;;;;3.93;3.27;;;15.60;99.90;;;;;;5084242;28;20190;-56
2024/04/06 08:05:50;;;;;;;8.40;3.17;;;15.60;99.90;;;;;;5049712;28;20707;-50
2024/04/06 08:08:16;;;;;;;5.90;3.83;;;15.70;99.90;;;;;;5080840;28;20507;-53
2024/04/06 08:10:43;;;;;;;5.43;3.93;;;15.70;99.90;;;;;;5072998;28;20201;-54
2024/04/06 08:13:12;;;;;;;6.63;4.07;;;15.80;99.90;;;;;;5073859;28;20221;-55
2024/04/06 08:15:40;;;;;;;5.43;3.67;;;15.80;99.90;;;;;;5071357;28;20220;-54
2024/04/06 08:18:06;;;;;;;5.07;3.83;;;15.80;99.90;;;;;;5078560;28;20212;-57
2024/04/06 08:20:33;;;;;;;4.87;4.37;;;15.80;99.90;;;;;;5046813;28;20198;-57
2024/04/06 08:22:59;;;;;;;4.67;4.10;;;15.80;99.90;;;;;;5078839;28;20202;-52
2024/04/06 08:25:26;;;;;;;6.43;4.47;;;15.90;99.90;;;;;;5069597;28;20246;-54
2024/04/06 08:27:51;;;;;;;6.07;4.10;;;15.90;99.90;;;;;;5073295;28;20217;-55
2024/04/06 08:30:18;;;;;;;6.20;4.37;;;16.00;99.90;;;;;;5054727;28;20275;-56
2024/04/06 08:32:54;;;;;;;6.63;4.30;;;16.10;99.90;;;;;;5082391;28;20198;-53
2024/04/06 08:35:21;;;;;;;4.80;4.23;;;16.10;99.90;;;;;;5054148;28;20214;-57
2024/04/06 08:37:47;;;;;;;7.50;4.07;;;16.10;99.90;;;;;;5088420;28;20259;-51
2024/04/06 08:40:14;;;;;;;6.73;4.47;;;16.10;99.90;;;;;;5061723;28;21283;-54
2024/04/06 08:42:42;;;;;;;6.23;4.43;;;16.10;99.90;;;;;;5080739;28;20201;-53
2024/04/06 08:45:10;;;;;;;6.60;4.73;;;16.20;99.90;;;;;;5071996;28;20273;-52
2024/04/06 08:47:37;;;;;;;6.97;4.70;;;16.30;99.90;;;;;;5082558;28;20224;-53
2024/04/06 08:50:08;;;;;;;7.33;4.80;;;16.40;99.90;;;;;;5080483;28;20251;-57
2024/04/06 08:52:35;;;;;;;6.10;4.00;;;16.50;99.90;;;;;;5051359;28;21403;-53
2024/04/06 08:55:03;;;;;;;8.50;5.13;;;16.50;99.90;;;;;;5072313;28;20229;-53
2024/04/06 08:57:30;;;;;;;8.33;5.00;;;16.50;99.90;;;;;;5076870;28;20293;-54
2024/04/06 08:59:59;;;;;;;5.77;4.23;;;16.50;99.90;;;;;;5084689;28;20205;-52
2024/04/06 09:02:29;;;;;;;7.20;4.83;;;16.60;99.90;;;;;;5081006;28;20205;-56
2024/04/06 09:04:56;;;;;;;6.53;4.77;;;16.70;99.90;;;;;;5082818;28;20201;-52
2024/04/06 09:07:23;;;;;;;6.10;5.27;;;16.80;99.90;;;;;;5050261;28;20940;-56
2024/04/06 09:09:51;;;;;;;7.70;4.60;;;16.90;99.90;;;;;;5079665;28;20525;-53
2024/04/06 09:12:17;;;;;;;6.67;4.40;;;17.00;99.90;;;;;;5083298;28;20213;-50
2024/04/06 09:14:46;;;;;;;8.70;4.90;;;17.00;99.90;;;;;;5086646;28;20228;-54
2024/04/06 09:17:13;;;;;;;7.17;4.80;;;17.00;99.90;;;;;;5079452;28;20233;-54
2024/04/06 09:19:42;;;;;;;5.60;4.77;;;;;;;;;;5084603;28;20580;-52
2024/04/06 09:22:07;;;;;;;5.20;4.60;;;17.10;99.90;;;;;;5045183;28;20209;-55
2024/04/06 09:24:37;;;;;;;5.77;4.60;;;17.20;99.90;;;;;;5081865;28;20193;-57
2024/04/06 09:27:05;;;;;;;4.97;4.57;;;17.30;99.90;;;;;;5070724;28;20202;-53
2024/04/06 09:29:32;;;;;;;6.80;4.23;;;17.30;99.90;;;;;;5089089;28;20589;-54
2024/04/06 09:32:02;;;;;;;5.20;4.70;;;17.30;99.90;;;;;;5083674;28;20201;-51
2024/04/06 09:34:28;;;;;;;6.77;4.80;;;17.40;99.90;;;;;;5079900;28;20228;-53
2024/04/06 09:37:01;;;;;;;6.87;4.90;;;17.40;99.90;;;;;;5050128;28;20214;-49
2024/04/06 09:39:31;;;;;;;5.83;4.80;;;17.50;99.90;;;;;;5072385;28;20565;-53
2024/04/06 09:41:59;;;;;;;7.10;5.17;;;17.40;99.90;;;;;;5082746;28;20815;-57
2024/04/06 09:44:28;;;;;;;5.10;4.60;;;17.50;99.90;;;;;;5067671;28;20189;-52
2024/04/06 09:46:53;;;;;;;5.77;5.10;;;17.60;99.90;;;;;;5083170;28;20259;-51
2024/04/06 09:49:23;;;;;;;6.73;5.43;;;17.60;99.90;;;;;;5073835;28;20213;-53
2024/04/06 09:51:49;;;;;;;6.37;5.77;;;17.70;99.90;;;;;;5079050;28;20675;-52
2024/04/06 09:54:16;;;;;;;6.97;5.23;;;;;;;;;;5053016;28;20209;-53
2024/04/06 09:56:42;;;;;;;5.40;4.70;;;;;;;;;;5083110;28;20256;-50
2024/04/06 09:59:21;;;;;;;5.90;5.40;;;;;;;;;;5064117;28;20265;-52
2024/04/06 10:01:47;;;;;;;6.40;4.73;;;;;;;;;;5080240;28;20194;-55
2024/04/06 10:04:23;;;;;;;10.73;4.50;;;;;;;;;;5071575;28;21142;-52
2024/04/06 10:06:51;;;;;;;6.03;4.40;;;;;;;;;;5055253;28;20225;-52
2024/04/06 10:09:18;;;;;;;4.77;4.33;;;;;;;;;;5049247;28;20225;-55
2024/04/06 10:11:45;;;;;;;6.43;4.83;;;;;;;;;;5065666;28;20220;-53
2024/04/06 10:14:12;;;;;;;6.97;5.10;;;;;;;;;;5065634;28;20653;-49
2024/04/06 10:16:41;;;;;;;7.80;5.47;;;;;;;;;;5071784;28;20190;-54
2024/04/06 10:19:08;;;;;;;5.70;4.37;;;;;;;;;;5074741;28;20699;-50
2024/04/06 10:21:36;;;;;;;9.13;4.57;;;;;;;;;;5079233;28;20289;-55
2024/04/06 10:24:10;;;;;;;6.17;4.20;;;;;;;;;;5064986;28;20186;-52
2024/04/06 10:26:45;;;;;;;8.43;4.20;;;;;;;;;;5077761;28;20680;-51
2024/04/06 10:29:13;;;;;;;9.10;3.87;;;;;;;;;;5056967;28;21011;-49
2024/04/06 10:31:42;;;;;;;5.67;3.53;;;;;;;;;;5069289;28;20194;-53
2024/04/06 10:34:09;;;;;;;4.67;3.90;;;;;;;;;;5081996;28;20216;-51
2024/04/06 10:36:35;;;;;;;4.60;3.63;;;;;;;;;;5082699;28;20201;-52
2024/04/06 10:39:04;;;;;;;6.73;3.90;;;;;;;;;;5070692;28;20696;-52
2024/04/06 10:41:30;;;;;;;5.17;3.67;;;;;;;;;;5070235;28;20282;-56
2024/04/06 10:43:58;;;;;;;4.90;3.27;;;;;;;;;;5068513;28;20643;-51
2024/04/06 10:46:24;;;;;;;3.78;3.47;;;;;;;;;;5064986;28;20209;-54
2024/04/06 10:48:53;;;;;;;4.00;3.25;;;;;;;;;;5076758;28;20696;-56
2024/04/06 10:51:19;;;;;;;5.65;3.28;;;;;;;;;;5071410;28;20926;-54
2024/04/06 10:53:46;;;;;;;5.83;3.70;;;;;;;;;;5084635;28;20260;-55
2024/04/06 10:56:13;;;;;;;6.97;4.27;;;;;;;;;;5053751;28;20202;-51
2024/04/06 10:58:40;;;;;;;4.35;3.88;;;;;;;;;;5081066;28;20309;-53
2024/04/06 11:01:14;;;;;;;3.72;3.42;;;;;;;;;;5070118;28;20660;-53
2024/04/06 11:03:42;;;;;;;6.03;3.88;;;;;;;;;;5086508;28;20356;-55
2024/04/06 11:06:10;;;;;;;5.15;3.80;;;;;;;;;;5072425;28;20550;-55
2024/04/06 11:08:37;;;;;;;5.40;3.30;;;;;;;;;;5041058;28;20226;-57
2024/04/06 11:11:03;;;;;;;7.15;3.53;;;;;;;;;;5025978;28;20233;-52
2024/04/06 11:13:31;;;;;;;5.70;3.30;;;;;;;;;;5055128;28;20655;-55
2024/04/06 11:15:57;;;;;;;5.55;3.78;;;;;;;;;;5068573;28;20198;-54
2024/04/06 11:18:24;;;;;;;3.75;3.30;;;;;;;;;;5088320;28;20698;-57
2024/04/06 11:20:51;;;;;;;3.60;3.03;;;;;;;;;;5072919;28;20229;-51
2024/04/06 11:23:20;;;;;;;2.75;2.53;;;;;;;;;;5086038;28;20198;-54
2024/04/06 11:25:46;;;;;;;5.03;3.08;;;;;;;;;;5055052;28;20718;-52
2024/04/06 11:28:14;;;;;;;4.20;2.60;;;;;;;;;;5060636;28;20225;-53
2024/04/06 11:30:41;;;;;;;2.95;2.58;;;;;;;;;;5075822;28;20275;-52
2024/04/06 11:33:08;;;;;;;6.65;3.13;;;;;;;;;;5084882;28;20181;-52
2024/04/06 11:35:35;;;;;;;5.35;2.10;;;;;;;;;;5071258;28;21695;-53
2024/04/06 11:38:02;;;;;;;4.95;2.47;;;;;;;;;;5081252;28;20217;-51
2024/04/06 11:40:29;;;;;;;3.25;2.10;;;;;;;;;;5073265;28;20220;-54
2024/04/06 11:42:57;;;;;;;4.22;2.20;;;;;;;;;;5050127;28;20259;-52
2024/04/06 11:45:23;;;;;;;5.10;2.05;;;;;;;;;;5061841;28;20211;-56
2024/04/06 11:47:54;;;;;;;8.82;3.67;;;;;;;;;;5086506;28;20220;-55
2024/04/06 11:50:20;;;;;;;15.10;5.25;;;;;;;;;;5078298;28;20190;-57
2024/04/06 11:52:47;;;;;;;2.33;2.13;;;;;;;;;;5083094;28;20200;-54
2024/04/06 11:55:13;;;;;;;2.67;1.70;;;;;;;;;;5077286;28;20393;-50
2024/04/06 11:57:42;;;;;;;2.25;1.60;;;;;;;;;;5056319;28;20218;-53
2024/04/06 12:00:09;;;;;;;1.90;1.50;;;;;;;;;;5071241;28;20220;-50
2024/04/06 12:02:41;;;;;;;4.13;1.65;;;;;;;;;;5083445;28;20254;-54
2024/04/06 12:05:07;;;;;;;2.45;1.55;;;;;;;;;;5082877;28;20617;-50
2024/04/06 12:07:38;;;;;;;2.50;1.85;;;;;;;;;;5068573;28;20193;-52
2024/04/06 12:10:05;;;;;;;2.42;1.35;;;;;;;;;;5077935;28;20194;-50
2024/04/06 12:12:32;;;;;;;1.58;0.90;;;;;;;;;;5081954;28;20183;-51
2024/04/06 12:15:00;;;;;;;2.15;1.20;;;;;;;;;;5048708;28;20214;-50
2024/04/06 12:17:27;;;;;;;2.78;1.30;;;20.80;99.90;;;;;;5063298;28;20979;-51
2024/04/06 12:19:54;;;;;;;1.88;1.60;;;20.90;99.90;;;;;;5081908;28;20198;-53
2024/04/06 12:22:20;;;;;;;2.70;1.30;;;20.90;99.90;;;;;;5066275;28;20201;-54
2024/04/06 12:24:46;;;;;;;2.35;1.27;;;20.90;99.90;;;;;;5075891;28;20597;-56
2024/04/06 12:27:17;;;;;;;1.15;0.85;;;21.00;99.90;;;;;;5059178;28;20263;-56
2024/04/06 12:29:42;;;;;;;2.22;1.10;;;21.10;99.90;;;;;;5055918;28;20221;-51
2024/04/06 12:32:11;;;;;;;2.67;1.05;;;21.10;99.90;;;;;;5064847;28;20593;-58
2024/04/06 12:34:37;;;;;;;2.20;1.10;;;21.20;99.90;;;;;;5083318;28;20619;-51
2024/04/06 12:37:08;;;;;;;3.03;1.08;;;21.20;99.90;;;;;;5078277;28;20196;-58
2024/04/06 12:39:34;;;;;;;2.42;0.95;;;21.10;99.90;;;;;;5082461;28;20218;-55
2024/04/06 12:42:01;;;;;;;1.60;1.00;;;21.10;99.90;;;;;;5085924;28;20702;-57
2024/04/06 12:44:27;;;;;;;1.23;1.02;;;21.20;99.90;;;;;;5052382;28;20283;-47
2024/04/06 12:46:54;;;;;;;1.35;0.90;;;21.20;99.90;;;;;;5076240;28;20202;-52
2024/04/06 12:49:21;;;;;;;1.25;0.90;;;21.30;99.90;;;;;;5085742;28;20953;-56
2024/04/06 12:51:48;;;;;;;1.25;0.88;;;21.30;99.90;;;;;;5091506;28;20209;-51
2024/04/06 12:54:14;;;;;;;0.82;0.75;;;21.30;99.90;;;;;;5070739;28;20272;-49
2024/04/06 12:59:21;;;;;;;1.50;1.02;;;21.40;99.90;;;;;;5079865;28;20255;-49
2024/04/06 13:01:48;;;;;;;1.58;1.00;;;21.50;99.90;;;;;;5045548;28;20247;-58
2024/04/06 13:04:14;;;;;;;1.08;0.73;;;21.60;99.90;;;;;;5068781;28;20275;-52
2024/04/06 13:06:42;;;;;;;1.70;0.80;;;21.80;99.90;;;;;;5083235;28;20189;-57